aviador You're here:

YPGV Decoded Metar

GOVE AIRPORT in AUSTRALIA
Report Time2018-05-21 20:00:00
UTC Time2018-05-21 20:39:45
Flight Rules vfr VFR
Wind160° at 15 kt
W.Decomp.*RWY 13: 13.5 kt HW 6.6 kt RCW
W.Rank160° ranks 5
Current wind is above 160° avg. (6.1)
Visibility9999 m
Phenomena:N/A
Clouds:N/A
Expected CloudBase > 2,800 ft AGL from Temp-Dew spread
CeilingNone
Temp26°C (ISA +11)
Dew Point19°C (65% RH)
AAT23.8°C
QNH1012 hPa
Density Alt1,818 ft
Elevation180 ft
Report Wrong Elevation
Raw Report
YPGV 212000Z AUTO 16015KT 9999 // NCD 26/19 Q1012=

Extra information for YPGV:More info

Metar Taf Metar & Taf Last 4 Metars F.Rules Stats Wind Profile Meteogram Temp Stats Airport Information Weather charts Add Link Nearby VenuesMetar ALERT Operation Metar Decoded Social comments